Time;durP1;ratioP1;P1;durP2;ratioP2;P2;SDS_P1;SDS_P2;PMS_P1;PMS_P2;Temp;Humidity;BMP_temperature;BMP_pressure;BME280_temperature;BME280_humidity;BME280_pressure;Samples;Min_cycle;Max_cycle;Signal;HPM_P1;HPM_P2
2021/09/07 00:02:05;;;;;;;19.08;10.82;;;;;;;15.15;82.34;96974.50;4975868;28;20202;-71
2021/09/07 00:04:32;;;;;;;15.40;9.65;;;;;;;15.14;82.50;96966.72;4975622;28;20211;-72
2021/09/07 00:06:59;;;;;;;18.25;10.68;;;;;;;15.01;83.97;96962.09;4975073;28;20234;-72
2021/09/07 00:09:26;;;;;;;16.80;9.95;;;;;;;15.09;82.92;96955.84;4975504;28;20207;-72
2021/09/07 00:11:54;;;;;;;14.57;9.45;;;;;;;15.13;82.57;96957.94;4975663;28;20206;-72
2021/09/07 00:14:20;;;;;;;14.68;9.05;;;;;;;14.69;82.06;96957.19;4975225;28;20210;-72
2021/09/07 00:16:47;;;;;;;16.63;9.27;;;;;;;14.68;82.56;96955.56;4975169;28;20867;-72
2021/09/07 00:19:13;;;;;;;16.05;10.15;;;;;;;14.71;83.01;96957.84;4975334;28;20208;-72
2021/09/07 00:21:39;;;;;;;17.20;10.13;;;;;;;14.70;84.31;96950.91;4976018;28;20212;-71
2021/09/07 00:24:06;;;;;;;19.48;10.88;;;;;;;14.70;84.68;96958.00;4972474;28;20199;-71
2021/09/07 00:26:32;;;;;;;16.42;10.38;;;;;;;14.59;83.93;96961.16;4974929;28;20238;-72
2021/09/07 00:29:00;;;;;;;16.80;9.57;;;;;;;14.58;84.80;96954.19;4975350;28;20219;-71
2021/09/07 00:31:27;;;;;;;16.45;9.18;;;;;;;14.24;85.79;96958.41;4975723;28;20207;-71
2021/09/07 00:33:53;;;;;;;21.42;10.90;;;;;;;14.22;86.33;96963.06;4975293;28;20942;-72
2021/09/07 00:36:19;;;;;;;16.92;10.63;;;;;;;14.32;86.45;96953.84;4975145;28;20231;-72
2021/09/07 00:38:46;;;;;;;18.80;11.07;;;;;;;14.40;87.03;96952.94;4975312;28;20199;-71
2021/09/07 00:41:12;;;;;;;22.23;11.75;;;;;;;14.46;87.08;96947.72;4974788;28;20356;-72
2021/09/07 00:43:40;;;;;;;18.33;10.77;;;;;;;14.77;85.66;96937.72;4975772;28;20211;-72
2021/09/07 00:46:08;;;;;;;17.85;10.45;;;;;;;14.77;84.16;96933.22;4974426;28;20707;-72
2021/09/07 00:48:34;;;;;;;16.02;8.95;;;;;;;14.32;85.03;96935.28;4974903;28;20250;-72
2021/09/07 00:51:01;;;;;;;20.55;10.20;;;;;;;14.47;84.56;96940.56;4975286;28;20199;-72
2021/09/07 00:53:27;;;;;;;19.92;11.52;;;;;;;14.45;86.48;96948.72;4975182;28;20705;-72
2021/09/07 00:55:57;;;;;;;21.95;11.52;;;;;;;14.49;86.59;96947.34;4974154;28;20625;-72
2021/09/07 00:58:27;;;;;;;19.98;12.05;;;;;;;14.62;87.04;96944.03;4974857;28;20314;-72
2021/09/07 01:00:53;;;;;;;22.33;11.63;;;;;;;14.67;86.16;96937.97;4975360;28;20207;-71
2021/09/07 01:03:21;;;;;;;19.40;10.65;;;;;;;14.58;86.50;96942.78;4975251;28;20608;-72
2021/09/07 01:05:48;;;;;;;17.38;10.20;;;;;;;14.36;86.13;96935.75;4974579;28;20210;-71
2021/09/07 01:08:14;;;;;;;15.82;10.50;;;;;;;14.35;86.14;96942.06;4974995;28;20333;-72
2021/09/07 01:10:41;;;;;;;19.55;10.77;;;;;;;14.51;86.05;96939.19;4974390;28;20665;-72
2021/09/07 01:13:08;;;;;;;20.75;11.80;;;;;;;14.46;86.76;96933.63;4975242;28;20204;-72
2021/09/07 01:15:35;;;;;;;20.30;12.52;;;;;;;14.41;87.26;96936.00;4974387;28;20204;-71
2021/09/07 01:18:01;;;;;;;19.67;11.85;;;;;;;14.37;88.40;96945.31;4974811;28;20223;-72
2021/09/07 01:20:29;;;;;;;22.98;12.05;;;;;;;14.75;86.68;96932.59;4974556;28;20211;-72
2021/09/07 01:22:56;;;;;;;17.20;10.38;;;;;;;14.28;86.53;96941.97;4971586;28;20207;-71
2021/09/07 01:25:24;;;;;;;18.85;10.63;;;;;;;14.14;87.62;96939.28;4976077;28;20224;-72
2021/09/07 01:27:50;;;;;;;15.35;9.38;;;;;;;13.84;87.87;96944.72;4978198;28;20239;-72
2021/09/07 01:30:18;;;;;;;19.58;11.85;;;;;;;14.36;87.04;96943.69;4977923;28;20872;-72
2021/09/07 01:32:45;;;;;;;22.35;12.55;;;;;;;14.24;87.64;96943.34;4977981;28;20210;-71
2021/09/07 01:35:11;;;;;;;21.65;12.55;;;;;;;14.27;88.26;96939.50;4977597;28;20203;-72
2021/09/07 01:37:39;;;;;;;21.45;12.52;;;;;;;14.35;87.97;96947.34;4977951;28;20598;-72
2021/09/07 01:40:07;;;;;;;18.73;11.45;;;;;;;14.56;86.36;96934.16;4977924;28;20204;-72
2021/09/07 01:42:35;;;;;;;17.65;10.60;;;;;;;14.52;85.58;96941.66;4977233;28;20244;-72
2021/09/07 01:45:01;;;;;;;17.80;10.38;;;;;;;14.16;85.71;96938.09;4978559;28;20203;-72
2021/09/07 01:47:28;;;;;;;17.52;10.65;;;;;;;14.10;85.50;96936.19;4977193;28;20253;-71
2021/09/07 01:49:54;;;;;;;20.13;10.55;;;;;;;14.15;85.70;96935.63;4977277;28;20231;-72
2021/09/07 01:52:21;;;;;;;21.15;12.25;;;;;;;14.00;88.51;96929.44;4977303;28;20207;-71
2021/09/07 01:54:48;;;;;;;23.52;12.95;;;;;;;14.05;90.08;96927.09;4977734;28;20215;-71
2021/09/07 01:57:16;;;;;;;20.75;11.48;;;;;;;14.13;87.33;96932.34;4976656;28;20230;-71
2021/09/07 01:59:44;;;;;;;17.27;10.27;;;;;;;14.12;85.98;96926.22;4977748;28;20566;-72
2021/09/07 02:02:10;;;;;;;17.85;10.38;;;;;;;14.10;84.40;96927.41;4977304;28;20210;-72
2021/09/07 02:04:37;;;;;;;21.25;10.70;;;;;;;14.03;85.12;96931.75;4977107;28;20715;-72
2021/09/07 02:07:04;;;;;;;20.80;12.07;;;;;;;14.09;85.95;96931.03;4976086;28;20248;-71
2021/09/07 02:09:30;;;;;;;18.27;10.30;;;;;;;13.96;85.48;96928.16;4973977;28;20227;-72
2021/09/07 02:11:57;;;;;;;22.83;11.45;;;;;;;14.09;85.36;96923.09;4977156;28;20586;-72
2021/09/07 02:14:24;;;;;;;18.25;11.43;;;;;;;14.09;84.60;96921.28;4977439;28;20207;-71
2021/09/07 02:16:51;;;;;;;20.73;11.88;;;;;;;14.18;85.92;96924.69;4976534;28;20596;-72
2021/09/07 02:19:18;;;;;;;24.90;13.57;;;;;;;14.09;87.27;96928.41;4977283;28;20207;-72
2021/09/07 02:21:44;;;;;;;22.17;13.00;;;;;;;14.15;87.71;96925.03;4977293;28;20211;-72
2021/09/07 02:24:11;;;;;;;21.55;12.07;;;;;;;14.02;86.21;96922.16;4974025;28;20203;-72
2021/09/07 02:26:38;;;;;;;18.02;10.80;;;;;;;13.92;85.33;96923.44;4976851;28;20360;-71
2021/09/07 02:29:05;;;;;;;26.37;12.17;;;;;;;13.84;86.09;96921.69;4976956;28;20223;-71
2021/09/07 02:31:31;;;;;;;21.47;12.90;;;;;;;13.76;87.84;96934.16;4976883;28;20643;-72
2021/09/07 02:34:00;;;;;;;21.60;12.98;;;;;;;13.92;87.52;96918.94;4977182;28;20207;-71
2021/09/07 02:36:27;;;;;;;23.30;13.18;;;;;;;13.81;87.63;96932.66;4974822;28;20703;-72
2021/09/07 02:38:53;;;;;;;23.63;12.80;;;;;;;13.94;86.45;96927.53;4976681;28;20235;-72
2021/09/07 02:41:20;;;;;;;20.48;11.60;;;;;;;13.53;86.53;96934.22;4977178;28;20203;-72
2021/09/07 02:43:47;;;;;;;22.27;11.57;;;;;;;13.90;84.57;96922.78;4976875;28;20215;-72
2021/09/07 02:46:13;;;;;;;17.35;10.57;;;;;;;14.01;84.24;96923.16;4976384;28;20231;-72
2021/09/07 02:48:40;;;;;;;21.87;10.93;;;;;;;13.46;85.96;96938.56;4977049;28;20231;-72
2021/09/07 02:51:08;;;;;;;18.93;11.33;;;;;;;13.60;86.40;96935.13;4977272;28;20207;-72
2021/09/07 02:53:34;;;;;;;19.50;11.97;;;;;;;13.48;87.79;96933.91;4976449;28;20217;-71
2021/09/07 02:56:01;;;;;;;22.02;12.77;;;;;;;13.62;86.74;96943.75;4976633;28;20209;-72
2021/09/07 02:58:27;;;;;;;20.60;11.87;;;;;;;13.59;87.26;96937.97;4976410;28;20207;-72
2021/09/07 03:00:54;;;;;;;20.63;11.43;;;;;;;13.69;85.20;96928.75;4976941;28;20235;-72
2021/09/07 03:03:22;;;;;;;22.15;11.07;;;;;;;13.86;83.86;96938.22;4976186;28;20204;-71
2021/09/07 03:05:48;;;;;;;18.25;9.88;;;;;;;13.76;82.72;96928.88;4976466;28;20211;-71
2021/09/07 03:08:16;;;;;;;16.10;8.90;;;;;;;13.53;83.94;96926.28;4976311;28;20200;-72
2021/09/07 03:10:43;;;;;;;16.55;9.63;;;;;;;13.13;84.89;96936.31;4976389;28;20210;-71
2021/09/07 03:13:10;;;;;;;19.25;11.32;;;;;;;13.31;86.24;96933.41;4976202;28;20199;-72
2021/09/07 03:15:37;;;;;;;18.20;10.90;;;;;;;13.27;86.33;96934.75;4976134;28;20215;-71
2021/09/07 03:18:04;;;;;;;15.43;8.80;;;;;;;13.26;84.64;96935.75;4976059;28;20223;-71
2021/09/07 03:20:30;;;;;;;20.85;10.77;;;;;;;13.24;84.61;96937.75;4976609;28;20210;-72
2021/09/07 03:22:57;;;;;;;15.45;9.25;;;;;;;13.30;84.45;96945.81;4973449;28;20207;-71
2021/09/07 03:25:25;;;;;;;19.23;9.57;;;;;;;13.53;84.10;96933.38;4975466;28;20211;-72
2021/09/07 03:27:51;;;;;;;17.90;10.23;;;;;;;13.42;84.53;96941.75;4976455;28;20215;-72
2021/09/07 03:30:17;;;;;;;19.17;10.40;;;;;;;13.43;84.75;96933.63;4976188;28;20230;-71
2021/09/07 03:32:44;;;;;;;17.80;10.10;;;;;;;13.27;84.88;96926.81;4976174;28;20204;-72
2021/09/07 03:35:11;;;;;;;17.43;10.60;;;;;;;13.09;85.68;96932.38;4975896;28;20311;-72
2021/09/07 03:37:38;;;;;;;20.40;10.17;;;;;;;13.13;84.87;96925.75;4976458;28;20587;-71
2021/09/07 03:40:06;;;;;;;18.58;10.45;;;;;;;13.41;83.62;96925.03;4975629;28;20313;-72
2021/09/07 03:42:34;;;;;;;17.33;10.43;;;;;;;13.44;83.66;96924.69;4976352;28;20204;-75
2021/09/07 03:45:01;;;;;;;21.03;11.13;;;;;;;13.23;84.63;96921.06;4975991;28;20319;-75
2021/09/07 03:47:27;;;;;;;18.63;10.83;;;;;;;13.22;85.51;96921.22;4975201;28;20235;-74
2021/09/07 03:49:54;;;;;;;17.00;9.48;;;;;;;13.13;83.68;96927.59;4975311;28;20223;-74
2021/09/07 03:52:20;;;;;;;18.63;10.10;;;;;;;12.79;85.17;96927.09;4976161;28;20207;-74
2021/09/07 03:54:47;;;;;;;17.20;9.32;;;;;;;12.65;85.54;96925.16;4975623;28;20215;-75
2021/09/07 03:57:13;;;;;;;18.25;10.00;;;;;;;12.89;84.43;96933.00;4974541;28;20231;-74
2021/09/07 03:59:41;;;;;;;16.57;9.83;;;;;;;13.30;83.65;96922.00;4976372;28;20766;-75
2021/09/07 04:02:07;;;;;;;16.60;10.27;;;;;;;12.99;84.66;96920.38;4975458;28;20211;-75
2021/09/07 04:04:34;;;;;;;20.80;10.73;;;;;;;13.04;84.32;96921.50;4975218;28;20212;-74
2021/09/07 04:07:00;;;;;;;19.00;10.50;;;;;;;12.94;83.92;96922.75;4975592;28;20738;-74
2021/09/07 04:09:27;;;;;;;18.80;10.45;;;;;;;13.15;83.10;96912.34;4975863;28;20242;-74
2021/09/07 04:11:53;;;;;;;16.10;9.80;;;;;;;12.96;83.45;96918.09;4975166;28;20578;-74
2021/09/07 04:14:20;;;;;;;18.23;9.87;;;;;;;13.02;83.04;96918.22;4975798;28;20210;-75
2021/09/07 04:16:48;;;;;;;15.77;9.27;;;;;;;13.26;82.51;96915.38;4975077;28;20219;-74
2021/09/07 04:19:14;;;;;;;18.90;11.00;;;;;;;12.95;85.07;96924.38;4975496;28;20195;-74
2021/09/07 04:21:41;;;;;;;20.63;11.50;;;;;;;13.03;85.21;96908.47;4975424;28;20214;-74
2021/09/07 04:24:08;;;;;;;20.07;10.43;;;;;;;13.09;83.91;96919.16;4972838;28;20602;-74
2021/09/07 04:26:34;;;;;;;23.92;11.52;;;;;;;13.00;85.09;96920.22;4974275;28;20235;-74
2021/09/07 04:29:01;;;;;;;27.57;12.13;;;;;;;12.87;85.48;96919.97;4974963;28;20223;-75
2021/09/07 04:31:27;;;;;;;17.37;10.80;;;;;;;12.86;84.69;96925.44;4975674;28;20216;-75
2021/09/07 04:33:55;;;;;;;21.77;9.83;;;;;;;13.12;82.91;96912.69;4975023;28;20210;-75
2021/09/07 04:36:22;;;;;;;17.20;9.97;;;;;;;12.89;83.85;96923.28;4973996;28;20227;-74
2021/09/07 04:38:48;;;;;;;20.50;12.10;;;;;;;12.92;85.24;96927.41;4976124;28;20204;-74
2021/09/07 04:41:15;;;;;;;16.60;10.37;;;;;;;12.62;85.32;96922.06;4974927;28;20210;-75
2021/09/07 04:43:41;;;;;;;23.33;10.77;;;;;;;12.75;84.48;96925.78;4975542;28;20211;-74
2021/09/07 04:46:08;;;;;;;19.27;10.90;;;;;;;12.81;84.28;96930.38;4974601;28;20223;-74
2021/09/07 04:48:34;;;;;;;18.67;10.83;;;;;;;12.55;85.55;96932.50;4975758;28;20210;-74
2021/09/07 04:51:02;;;;;;;24.43;12.63;;;;;;;12.51;88.61;96936.50;4974788;28;20199;-74
2021/09/07 04:53:28;;;;;;;26.47;12.77;;;;;;;12.52;88.52;96934.66;4975383;28;21445;-74
2021/09/07 04:55:55;;;;;;;18.30;11.63;;;;;;;12.55;88.25;96935.16;4974367;28;20214;-74
2021/09/07 04:58:22;;;;;;;16.77;9.97;;;;;;;12.30;87.11;96938.88;4974613;28;20218;-74
2021/09/07 05:00:48;;;;;;;20.63;10.20;;;;;;;12.11;87.53;96941.09;4977469;28;20610;-75
2021/09/07 05:03:15;;;;;;;19.83;11.13;;;;;;;12.58;86.09;96942.72;4978523;28;20214;-75
2021/09/07 05:05:41;;;;;;;21.50;12.27;;;;;;;12.61;87.81;96941.56;4978422;28;20214;-75
2021/09/07 05:08:09;;;;;;;21.43;11.43;;;;;;;12.93;86.68;96944.88;4977504;28;20234;-75
2021/09/07 05:10:36;;;;;;;24.33;12.03;;;;;;;12.95;86.08;96945.56;4978777;28;20227;-74
2021/09/07 05:13:02;;;;;;;20.00;11.97;;;;;;;13.02;87.28;96946.50;4978694;28;20666;-74
2021/09/07 05:15:29;;;;;;;22.90;12.40;;;;;;;13.00;87.68;96949.31;4977518;28;20914;-75
2021/09/07 05:17:55;;;;;;;21.13;11.67;;;;;;;13.06;86.80;96953.91;4977731;28;20764;-74
2021/09/07 05:20:22;;;;;;;20.33;11.67;;;;;;;13.06;87.20;96951.28;4979074;28;20566;-74
2021/09/07 05:22:49;;;;;;;21.43;11.83;;;;;;;13.09;88.04;96953.56;4975855;28;20282;-75
2021/09/07 05:25:17;;;;;;;18.93;11.30;;;;;;;13.35;88.64;96950.56;4976841;28;20263;-75
2021/09/07 05:27:43;;;;;;;19.07;12.10;;;;;;;13.25;88.83;96947.34;4977874;28;20230;-74
2021/09/07 05:30:11;;;;;;;22.80;11.47;;;;;;;13.60;88.35;96947.56;4978334;28;20231;-74
2021/09/07 05:32:37;;;;;;;18.08;10.93;;;;;;;13.26;88.35;96946.34;4977304;28;21142;-74
2021/09/07 05:35:05;;;;;;;22.90;10.23;;;;;;;13.42;88.55;96941.75;4978565;28;20210;-73
2021/09/07 05:37:37;;;;;;;22.63;10.65;;;;;;;13.33;88.62;96950.75;4976562;28;21355;-74
2021/09/07 05:40:04;;;;;;;20.10;9.93;;;;;;;13.76;86.98;96960.66;4978306;28;20210;-73
2021/09/07 05:42:32;;;;;;;20.37;10.73;;;;;;;13.90;86.83;96947.47;4977215;28;20210;-74
2021/09/07 05:44:59;;;;;;;22.45;11.50;;;;;;;13.87;87.39;96947.00;4977622;28;20234;-74
2021/09/07 05:47:25;;;;;;;20.50;11.32;;;;;;;14.04;86.31;96947.47;4981827;28;20227;-74
2021/09/07 05:49:52;;;;;;;26.77;12.13;;;;;;;14.15;86.57;96954.19;4986086;28;20230;-74
2021/09/07 05:52:18;;;;;;;20.00;11.73;;;;;;;14.07;88.01;96952.41;4986007;28;20628;-73
2021/09/07 05:54:45;;;;;;;22.60;10.93;;;;;;;14.15;88.28;96959.47;4985124;28;20234;-73
2021/09/07 05:57:11;;;;;;;18.10;11.40;;;;;;;14.28;89.00;96967.63;4984668;28;20231;-74
2021/09/07 05:59:39;;;;;;;21.63;12.00;;;;;;;14.44;89.07;96962.16;4985686;28;20222;-73
2021/09/07 06:02:06;;;;;;;27.88;11.65;;;;;;;14.49;88.20;96965.91;4985996;28;20207;-74
2021/09/07 06:04:32;;;;;;;24.00;11.65;;;;;;;14.55;87.33;96967.00;4989137;28;20254;-73
2021/09/07 06:06:59;;;;;;;19.10;10.88;;;;;;;14.41;88.41;96970.47;4985536;28;20237;-73
2021/09/07 06:09:25;;;;;;;19.75;10.52;;;;;;;14.62;87.99;96975.88;4992607;28;20234;-73
2021/09/07 06:11:52;;;;;;;19.90;10.98;;;;;;;14.59;88.70;96969.09;4985493;28;20211;-74
2021/09/07 06:14:18;;;;;;;22.98;11.68;;;;;;;14.62;88.34;96963.44;4985765;28;20211;-73
2021/09/07 06:16:46;;;;;;;24.13;11.73;;;;;;;14.92;88.08;96962.41;4985043;28;20242;-74
2021/09/07 06:19:12;;;;;;;26.60;13.65;;;;;;;14.80;88.62;96970.00;4985563;28;20207;-74
2021/09/07 06:21:39;;;;;;;22.30;12.80;;;;;;;14.74;90.54;96970.75;4985815;28;20430;-74
2021/09/07 06:24:06;;;;;;;23.55;12.50;;;;;;;14.92;90.64;96965.06;4984586;28;20214;-74
2021/09/07 06:26:32;;;;;;;30.98;13.02;;;;;;;14.99;89.56;96974.72;4984949;28;20282;-74
2021/09/07 06:28:59;;;;;;;29.52;13.75;;;;;;;15.17;88.26;96969.81;4985363;28;20702;-74
2021/09/07 06:31:25;;;;;;;29.13;12.98;;;;;;;15.29;87.63;96971.03;4985130;28;20738;-74
2021/09/07 06:33:53;;;;;;;32.30;13.77;;;;;;;15.39;87.90;96972.34;4984844;28;20683;-73
2021/09/07 06:36:20;;;;;;;28.38;13.88;;;;;;;15.47;88.29;96974.06;4978592;28;20977;-72
2021/09/07 06:38:46;;;;;;;28.67;13.75;;;;;;;15.75;88.17;96972.31;4977897;28;20211;-73
2021/09/07 06:41:12;;;;;;;27.92;14.90;;;;;;;16.00;85.41;96975.19;4976487;28;20195;-73
2021/09/07 06:43:39;;;;;;;39.10;16.35;;;;;;;16.09;85.29;96968.69;4977403;28;20207;-73
2021/09/07 06:46:05;;;;;;;31.95;15.10;;;;;;;16.02;85.56;96975.78;4973306;28;20208;-73
2021/09/07 06:48:32;;;;;;;27.73;15.27;;;;;;;16.07;86.57;96973.38;4976043;28;20211;-73
2021/09/07 06:51:00;;;;;;;25.58;14.32;;;;;;;16.28;86.52;96962.75;4975823;28;20230;-73
2021/09/07 06:53:26;;;;;;;28.75;13.27;;;;;;;16.33;85.33;96972.78;4976019;28;20208;-73
2021/09/07 06:55:53;;;;;;;29.98;13.77;;;;;;;16.31;84.56;96970.31;4974070;28;20208;-73
2021/09/07 06:58:20;;;;;;;27.05;12.43;;;;;;;16.43;84.36;96976.72;4976016;28;20218;-73
2021/09/07 07:00:46;;;;;;;23.80;13.18;;;;;;;16.26;86.08;96979.91;4977408;28;20211;-73
2021/09/07 07:03:12;;;;;;;24.73;12.07;;;;;;;16.17;86.29;96981.84;4976665;28;20203;-73
2021/09/07 07:05:39;;;;;;;23.48;12.43;;;;;;;16.19;86.40;96973.66;4975700;28;20211;-72
2021/09/07 07:08:07;;;;;;;22.00;12.15;;;;;;;16.33;87.08;96978.94;4976196;28;20219;-73
2021/09/07 07:10:33;;;;;;;30.17;12.73;;;;;;;16.49;85.40;96978.63;4975988;28;20237;-73
2021/09/07 07:13:00;;;;;;;30.40;12.82;;;;;;;16.43;84.93;96983.91;4976801;28;20203;-73
2021/09/07 07:15:26;;;;;;;24.20;13.25;;;;;;;16.33;85.11;96988.75;4975859;28;20215;-73
2021/09/07 07:17:53;;;;;;;21.92;13.18;;;;;;;16.41;85.06;96988.59;4976074;28;20588;-73
2021/09/07 07:20:19;;;;;;;23.05;12.70;;;;;;;16.34;86.48;96980.56;4975570;28;20204;-73
2021/09/07 07:22:46;;;;;;;30.65;12.88;;;;;;;16.53;86.76;96974.56;4973311;28;20203;-72
2021/09/07 07:25:14;;;;;;;29.42;13.43;;;;;;;16.75;86.36;96979.59;4974737;28;20199;-73
2021/09/07 07:27:42;;;;;;;22.88;12.65;;;;;;;16.85;85.34;96979.22;4975870;28;20924;-72
2021/09/07 07:30:09;;;;;;;30.55;14.23;;;;;;;17.06;85.16;96981.81;4975596;28;20685;-73
2021/09/07 07:32:36;;;;;;;23.52;14.88;;;;;;;17.01;85.39;96978.91;4976349;28;20971;-73
2021/09/07 07:35:03;;;;;;;29.58;15.02;;;;;;;17.07;86.50;96988.75;4976293;28;20214;-72
2021/09/07 07:37:29;;;;;;;28.42;15.05;;;;;;;17.10;87.31;96987.31;4974739;28;20223;-73
2021/09/07 07:39:56;;;;;;;26.17;14.80;;;;;;;17.47;85.32;96986.88;4975920;28;20753;-73
2021/09/07 07:42:23;;;;;;;28.67;15.57;;;;;;;17.35;87.15;96988.50;4975758;28;20207;-72
2021/09/07 07:44:50;;;;;;;27.70;15.82;;;;;;;17.17;88.87;96990.84;4976083;28;20227;-73
2021/09/07 07:47:16;;;;;;;26.65;14.90;;;;;;;17.33;87.82;96987.84;4974626;28;20219;-73
2021/09/07 07:49:43;;;;;;;25.33;15.25;;;;;;;17.33;88.39;96993.19;4976460;28;20214;-73
2021/09/07 07:52:09;;;;;;;31.23;16.30;;;;;;;17.45;87.37;96988.09;4974899;28;20715;-73
2021/09/07 07:54:36;;;;;;;25.80;14.30;;;;;;;17.98;84.48;96988.00;4975825;28;20703;-73
2021/09/07 07:57:03;;;;;;;35.50;17.70;;;;;;;18.00;86.31;96986.75;4975234;28;20838;-73
2021/09/07 07:59:31;;;;;;;26.90;16.10;;;;;;;18.13;86.71;96986.75;4975490;28;20203;-74
2021/09/07 08:01:57;;;;;;;30.27;17.20;;;;;;;18.13;85.55;96989.44;4975024;28;20278;-73
2021/09/07 08:04:23;;;;;;;30.70;15.93;;;;;;;18.26;84.79;96980.63;4976773;28;20199;-72
2021/09/07 08:06:50;;;;;;;27.85;16.52;;;;;;;18.28;84.65;96983.91;4974082;28;20238;-73
2021/09/07 08:09:16;;;;;;;26.02;16.00;;;;;;;18.29;84.17;96990.88;4975334;28;20207;-73
2021/09/07 08:11:43;;;;;;;28.70;16.77;;;;;;;18.50;83.66;96983.47;4975606;28;20227;-73
2021/09/07 08:14:09;;;;;;;27.00;15.52;;;;;;;18.78;83.11;96990.19;4975598;28;20204;-73
2021/09/07 08:16:37;;;;;;;28.02;15.52;;;;;;;19.18;82.28;96984.56;4974322;28;20235;-74
2021/09/07 08:19:04;;;;;;;27.92;16.60;;;;;;;18.95;81.67;96988.69;4975576;28;20203;-73
2021/09/07 08:21:30;;;;;;;29.67;16.80;;;;;;;19.07;82.65;96979.06;4975394;28;20269;-70
2021/09/07 08:23:57;;;;;;;28.25;15.45;;;;;;;19.38;80.60;96982.59;4971981;28;20216;-74
2021/09/07 08:26:24;;;;;;;30.15;17.48;;;;;;;19.48;79.85;96988.31;4974614;28;20227;-73
2021/09/07 08:28:50;;;;;;;27.40;15.70;;;;;;;19.89;79.14;96981.47;4975382;28;20244;-73
2021/09/07 08:31:17;;;;;;;21.27;12.73;;;;;;;20.29;76.94;96985.53;4975064;28;20246;-73
2021/09/07 08:33:44;;;;;;;35.08;18.05;;;;;;;20.46;78.71;96981.25;4975351;28;20614;-74
2021/09/07 08:36:11;;;;;;;26.15;14.50;;;;;;;20.61;75.44;96976.34;4974423;28;20590;-71
2021/09/07 08:38:37;;;;;;;25.95;15.43;;;;;;;21.02;73.99;96978.19;4973904;28;20222;-72
2021/09/07 08:41:04;;;;;;;31.30;16.25;;;;;;;21.11;73.24;96989.44;4974984;28;20199;-71
2021/09/07 08:43:31;;;;;;;27.38;16.08;;;;;;;21.13;71.14;96982.81;4975531;28;20207;-70
2021/09/07 08:45:59;;;;;;;25.10;14.15;;;;;;;21.32;71.79;96983.63;4974381;28;20208;-71
2021/09/07 08:48:27;;;;;;;23.92;14.75;;;;;;;21.22;70.77;96988.69;4974454;28;20203;-71
2021/09/07 08:50:56;;;;;;;24.95;14.95;;;;;;;21.49;70.06;96993.50;4973774;28;20219;-71
2021/09/07 08:53:23;;;;;;;28.08;16.05;;;;;;;21.83;68.43;96991.00;4973407;28;20203;-71
2021/09/07 08:55:50;;;;;;;24.73;14.98;;;;;;;21.72;66.92;96994.44;4974169;28;20199;-71
2021/09/07 08:58:17;;;;;;;27.35;14.05;;;;;;;21.82;70.16;96993.91;4974528;28;20210;-71
2021/09/07 09:00:49;;;;;;;27.85;15.35;;;;;;;21.86;68.06;96984.38;4974895;28;20207;-71
2021/09/07 09:03:15;;;;;;;22.10;13.57;;;;;;;21.90;65.67;96980.97;4974494;28;20225;-70
2021/09/07 09:05:43;;;;;;;19.33;11.55;;;;;;;22.18;68.12;96990.03;4974407;28;20207;-71
2021/09/07 09:08:12;;;;;;;23.08;11.65;;;;;;;22.56;64.92;96982.41;4973439;28;20269;-72
2021/09/07 09:10:39;;;;;;;21.88;11.77;;;;;;;22.60;66.34;96980.88;4974670;28;20226;-72
2021/09/07 09:13:08;;;;;;;20.13;11.57;;;;;;;22.79;65.12;96995.84;4975046;28;20206;-71
2021/09/07 09:15:34;;;;;;;22.33;12.38;;;;;;;22.85;64.40;96989.53;4974953;28;20307;-71
2021/09/07 09:18:06;;;;;;;19.00;10.57;;;;;;;23.27;62.44;96985.63;4974083;28;20223;-71
2021/09/07 09:20:33;;;;;;;17.73;10.45;;;;;;;23.19;61.98;96984.13;4974184;28;20233;-71
2021/09/07 09:23:00;;;;;;;21.25;11.15;;;;;;;22.93;62.42;96984.59;4971983;28;20228;-71
2021/09/07 09:25:34;;;;;;;17.75;10.65;;;;;;;23.43;61.37;96981.16;4974640;28;20595;-72
2021/09/07 09:28:16;;;;;;;17.98;10.15;;;;;;;23.55;60.66;96986.50;4975024;28;20254;-71
2021/09/07 09:30:44;;;;;;;20.95;10.15;;;;;;;23.49;61.32;96984.75;4975491;28;20238;-73
2021/09/07 09:33:12;;;;;;;15.90;9.65;;;;;;;23.37;58.72;96992.88;4975666;28;20207;-73
2021/09/07 09:35:48;;;;;;;18.00;10.93;;;;;;;23.86;59.38;96991.44;4973589;28;20214;-73
2021/09/07 09:38:14;;;;;;;17.77;9.88;;;;;;;23.67;57.66;96990.75;4974891;28;20214;-72
2021/09/07 09:40:43;;;;;;;16.55;9.57;;;;;;;23.80;58.18;96995.88;4974400;28;20206;-73
2021/09/07 09:43:25;;;;;;;17.13;10.35;;;;;;;23.74;58.60;96994.19;4974663;28;20234;-73
2021/09/07 09:45:52;;;;;;;16.60;10.13;;;;;;;23.94;57.59;96994.53;4974856;28;20218;-73
2021/09/07 09:48:26;;;;;;;19.33;10.63;;;;;;;24.08;56.54;96988.63;4977877;28;20206;-73
2021/09/07 09:50:55;;;;;;;20.02;10.57;;;;;;;24.14;57.30;96986.84;4977217;28;20670;-72
2021/09/07 09:53:22;;;;;;;17.80;10.73;;;;;;;24.40;57.05;96980.84;4977862;28;20203;-72
2021/09/07 09:55:53;;;;;;;17.38;10.00;;;;;;;24.48;58.01;96983.13;4976917;28;20207;-72
2021/09/07 09:58:21;;;;;;;17.08;10.07;;;;;;;24.25;58.89;96986.78;4978071;28;20252;-73
2021/09/07 10:00:48;;;;;;;16.83;10.40;;;;;;;24.13;56.21;96988.72;4977408;28;20369;-73
2021/09/07 10:03:16;;;;;;;17.05;10.38;;;;;;;24.25;56.56;96976.00;4977891;28;20203;-72
2021/09/07 10:05:44;;;;;;;17.40;10.65;;;;;;;24.40;55.44;96983.53;4976525;28;20568;-73
2021/09/07 10:08:14;;;;;;;18.35;11.02;;;;;;;24.50;56.15;96981.00;4977025;28;20234;-72
2021/09/07 10:10:45;;;;;;;17.33;11.15;;;;;;;24.86;59.17;96971.34;4976883;28;21320;-71
2021/09/07 10:13:17;;;;;;;20.17;10.80;;;;;;;24.37;58.51;96975.91;4977302;28;20203;-72
2021/09/07 10:15:47;;;;;;;22.27;10.73;;;;;;;24.75;58.61;96977.63;4976470;28;20208;-72
2021/09/07 10:22:57;;;;;;;16.05;9.45;;;;;;;24.98;56.64;96969.34;4982137;28;20200;-72
2021/09/07 10:24:04;;;;;;;14.32;8.70;;;;;;;25.10;53.32;96962.00;4974033;28;20691;-71
2021/09/07 10:26:51;;;;;;;14.32;8.45;;;;;;;25.49;51.41;96958.16;4976606;28;20310;-71
2021/09/07 10:29:22;;;;;;;14.05;8.80;;;;;;;25.66;52.42;96962.41;4977606;28;20735;-71
2021/09/07 10:31:49;;;;;;;15.23;8.82;;;;;;;25.38;51.57;96961.78;4977113;28;20227;-72
2021/09/07 10:34:17;;;;;;;15.57;8.82;;;;;;;25.39;54.81;96952.63;4976669;28;20208;-71
2021/09/07 10:36:57;;;;;;;12.80;8.05;;;;;;;25.84;56.00;96949.41;4976366;28;20230;-72
2021/09/07 10:39:31;;;;;;;14.88;9.15;;;;;;;25.36;52.54;96953.16;4976677;28;20207;-72
2021/09/07 10:41:57;;;;;;;13.90;8.68;;;;;;;25.70;52.41;96944.69;4977152;28;20289;-71
2021/09/07 10:44:30;;;;;;;14.05;8.82;;;;;;;26.04;50.62;96943.38;4977080;28;20211;-72
2021/09/07 10:47:03;;;;;;;14.18;8.95;;;;;;;26.13;53.07;96944.53;4975959;28;20239;-72
2021/09/07 10:49:44;;;;;;;16.20;9.10;;;;;;;25.96;52.81;96936.56;4977096;28;20247;-72
2021/09/07 10:52:22;;;;;;;14.32;7.80;;;;;;;25.86;50.72;96936.47;4976323;28;20227;-72
2021/09/07 10:55:04;;;;;;;15.07;8.48;;;;;;;25.78;49.63;96932.59;4976830;28;20260;-71
2021/09/07 10:57:54;;;;;;;14.18;8.70;;;;;;;26.27;50.71;96930.34;4974634;28;20231;-72
2021/09/07 11:00:35;;;;;;;14.27;8.10;;;;;;;25.92;49.15;96930.03;4977026;28;20215;-72
2021/09/07 11:03:02;;;;;;;11.27;7.72;;;;;;;25.87;52.28;96924.56;4974419;28;20203;-72
2021/09/07 11:05:48;;;;;;;11.35;7.50;;;;;;;26.09;46.35;96917.22;4976127;28;20200;-72
2021/09/07 11:08:18;;;;;;;12.63;7.38;;;;;;;26.45;46.54;96921.84;4976021;28;20233;-72
2021/09/07 11:10:46;;;;;;;11.30;7.32;;;;;;;26.78;48.18;96921.56;4976604;28;20288;-72
2021/09/07 11:13:20;;;;;;;13.18;7.78;;;;;;;26.51;47.22;96920.84;4976303;28;20199;-72
2021/09/07 11:15:49;;;;;;;15.30;7.60;;;;;;;26.08;48.88;96921.00;4976071;28;20626;-72
2021/09/07 11:18:16;;;;;;;14.02;7.20;;;;;;;25.99;47.34;96922.56;4975526;28;20200;-72
2021/09/07 11:20:45;;;;;;;12.15;7.43;;;;;;;25.98;50.72;96926.31;4975401;28;20234;-72
2021/09/07 11:23:15;;;;;;;11.98;7.93;;;;;;;25.74;46.88;96912.56;4972432;28;20199;-72
2021/09/07 11:25:43;;;;;;;12.10;7.47;;;;;;;26.30;49.54;96915.50;4975553;28;20203;-73